Time;durP1;ratioP1;P1;durP2;ratioP2;P2;SDS_P1;SDS_P2;PMS_P1;PMS_P2;Temp;Humidity;BMP_temperature;BMP_pressure;BME280_temperature;BME280_humidity;BME280_pressure;Samples;Min_cycle;Max_cycle;Signal;HPM_P1;HPM_P2
2023/12/01 00:01:05;;;;;;;5.72;2.65;;;;;;;-4.51;100.00;99904.59;5013579;28;20052;-82
2023/12/01 00:03:33;;;;;;;6.43;3.50;;;;;;;-4.57;100.00;99903.56;5004937;28;20049;-82
2023/12/01 00:06:01;;;;;;;5.88;3.35;;;;;;;-4.58;100.00;99901.06;5012359;28;20046;-83
2023/12/01 00:08:34;;;;;;;4.28;2.72;;;;;;;-4.56;100.00;99904.34;5009967;28;20546;-83
2023/12/01 00:11:04;;;;;;;4.18;2.75;;;;;;;-4.61;100.00;99904.97;5012421;28;20042;-83
2023/12/01 00:13:33;;;;;;;4.40;2.42;;;;;;;-4.59;100.00;99910.06;5026880;28;20436;-83
2023/12/01 00:16:01;;;;;;;6.05;3.53;;;;;;;-4.58;100.00;99927.63;5008362;28;20038;-83
2023/12/01 00:18:34;;;;;;;4.55;2.92;;;;;;;-4.67;100.00;99919.84;5011526;28;20057;-82
2023/12/01 00:21:02;;;;;;;7.78;4.38;;;;;;;-4.64;100.00;99922.09;5012388;28;20064;-83
2023/12/01 00:23:31;;;;;;;8.88;3.25;;;;;;;-4.79;100.00;99919.59;5011963;28;20053;-83
2023/12/01 00:25:59;;;;;;;5.22;3.58;;;;;;;-4.72;100.00;99932.06;5012123;28;20049;-83
2023/12/01 00:28:35;;;;;;;5.43;2.85;;;;;;;-4.67;100.00;99925.16;5010336;28;20058;-83
2023/12/01 00:31:08;;;;;;;5.85;3.67;;;;;;;-4.78;100.00;99931.03;5023749;28;20061;-82
2023/12/01 00:33:41;;;;;;;5.07;3.40;;;;;;;-4.93;100.00;99939.09;5008151;28;20638;-83
2023/12/01 00:36:09;;;;;;;5.25;3.10;;;;;;;-4.86;100.00;99936.50;5005599;28;20061;-82
2023/12/01 00:38:38;;;;;;;5.53;3.13;;;;;;;-4.95;100.00;99933.19;5026036;28;20053;-83
2023/12/01 00:41:07;;;;;;;5.72;2.65;;;;;;;-5.02;100.00;99932.34;5019836;28;20046;-82
2023/12/01 00:43:36;;;;;;;6.57;3.63;;;;;;;-4.93;100.00;99930.34;5010946;28;20409;-83
2023/12/01 00:46:05;;;;;;;4.63;3.08;;;;;;;-4.94;100.00;99934.84;5007594;28;20057;-82
2023/12/01 00:48:38;;;;;;;5.10;2.78;;;;;;;-4.95;100.00;99928.69;5004482;28;20065;-83
2023/12/01 00:51:14;;;;;;;4.55;2.60;;;;;;;-4.98;100.00;99936.25;5010579;28;20045;-83
2023/12/01 00:53:48;;;;;;;2.42;1.77;;;;;;;-4.98;100.00;99934.41;5009680;28;20053;-83
2023/12/01 00:56:21;;;;;;;5.22;2.75;;;;;;;-5.12;100.00;99938.81;5008756;28;20494;-83
2023/12/01 00:58:51;;;;;;;3.35;2.28;;;;;;;-5.10;100.00;99935.97;5009666;28;20061;-83
2023/12/01 01:01:24;;;;;;;4.57;2.47;;;;;;;-5.17;100.00;99937.75;5005705;28;20053;-83
2023/12/01 01:03:58;;;;;;;4.63;2.72;;;;;;;-5.10;100.00;99946.56;5007376;28;20050;-83
2023/12/01 01:06:26;;;;;;;4.90;2.20;;;;;;;-5.13;100.00;99945.13;5011619;28;20046;-82
2023/12/01 01:08:59;;;;;;;7.80;4.18;;;;;;;-5.06;100.00;99941.72;5012062;28;20061;-83
2023/12/01 01:11:32;;;;;;;5.15;2.72;;;;;;;-5.10;100.00;99954.53;5004055;28;20045;-83
2023/12/01 01:14:07;;;;;;;4.00;2.25;;;;;;;-5.07;100.00;99954.13;5010662;28;20054;-82
2023/12/01 01:16:40;;;;;;;3.28;2.05;;;;;;;-5.03;100.00;99957.22;5009079;28;20042;-83
2023/12/01 01:19:13;;;;;;;4.03;2.55;;;;;;;-5.09;100.00;99948.22;5007294;28;20042;-83
2023/12/01 01:21:46;;;;;;;4.50;2.83;;;;;;;-5.03;100.00;99957.22;5022399;28;20045;-84
2023/12/01 01:24:19;;;;;;;7.07;3.95;;;;;;;-5.08;100.00;99952.53;5008614;28;20450;-82
2023/12/01 01:26:52;;;;;;;3.13;2.15;;;;;;;-5.19;100.00;99953.88;5002990;28;20060;-83
2023/12/01 01:29:27;;;;;;;3.90;2.17;;;;;;;-5.24;100.00;99950.97;5001485;28;20057;-82
2023/12/01 01:31:55;;;;;;;3.63;2.17;;;;;;;-5.36;100.00;99955.19;5004801;28;20061;-83
2023/12/01 01:34:28;;;;;;;3.42;2.60;;;;;;;-5.19;100.00;99953.03;5005493;28;20042;-83
2023/12/01 01:37:01;;;;;;;4.13;2.42;;;;;;;-5.28;100.00;99952.38;5005477;28;20509;-82
2023/12/01 01:39:34;;;;;;;3.60;2.13;;;;;;;-5.19;100.00;99956.53;5007199;28;20061;-83
2023/12/01 01:42:08;;;;;;;6.40;3.30;;;;;;;-5.40;100.00;99945.97;5011048;28;20498;-82
2023/12/01 01:44:43;;;;;;;3.63;2.30;;;;;;;-5.37;100.00;99953.53;5004718;28;20057;-83
2023/12/01 01:47:11;;;;;;;8.05;4.13;;;;;;;-5.46;100.00;99953.69;5002606;28;20065;-82
2023/12/01 01:49:44;;;;;;;7.18;3.83;;;;;;;-5.47;100.00;99948.56;5008371;28;20069;-83
2023/12/01 01:52:12;;;;;;;4.65;3.22;;;;;;;-5.61;100.00;99954.78;5009796;28;20061;-82
2023/12/01 01:54:46;;;;;;;6.40;3.42;;;;;;;-5.57;100.00;99958.69;5005036;28;20050;-83
2023/12/01 01:57:14;;;;;;;6.82;3.15;;;;;;;-5.62;100.00;99959.28;5023633;28;20061;-84
2023/12/01 01:59:49;;;;;;;5.00;2.95;;;;;;;-5.82;100.00;99956.44;5010895;28;20588;-83
2023/12/01 02:02:17;;;;;;;5.10;2.65;;;;;;;-5.87;100.00;99951.72;5009181;28;20049;-82
2023/12/01 02:04:46;;;;;;;5.20;3.20;;;;;;;-5.74;100.00;99952.88;5010790;28;20058;-82
2023/12/01 02:07:26;;;;;;;3.85;2.08;;;;;;;-5.77;100.00;99953.22;5021390;28;20046;-83
2023/12/01 02:09:59;;;;;;;6.13;4.15;;;;;;;-5.89;100.00;99956.38;5001054;28;20054;-84
2023/12/01 02:12:28;;;;;;;5.75;3.22;;;;;;;-5.84;100.00;99953.16;5016698;28;20077;-83
2023/12/01 02:15:02;;;;;;;4.07;2.72;;;;;;;-5.98;100.00;99968.13;5003821;28;20414;-83
2023/12/01 02:17:31;;;;;;;4.97;2.70;;;;;;;-5.96;100.00;99958.16;5010361;28;20045;-84
2023/12/01 02:20:05;;;;;;;2.88;1.35;;;;;;;-5.96;100.00;99955.50;5013979;28;20041;-85
2023/12/01 02:22:35;;;;;;;6.80;2.78;;;;;;;-6.04;100.00;99951.19;5010426;28;20046;-83
2023/12/01 02:25:04;;;;;;;5.70;2.88;;;;;;;-6.17;100.00;99959.81;5003018;28;20049;-83
2023/12/01 02:27:37;;;;;;;4.65;2.92;;;;;;;-6.05;100.00;99957.50;5007315;28;20529;-82
2023/12/01 02:30:11;;;;;;;6.32;3.20;;;;;;;-6.14;100.00;99961.28;5001613;28;20051;-83
2023/12/01 02:32:40;;;;;;;;;;;;;;;-5.99;100.00;99963.88;5020972;28;20494;-82
2023/12/01 02:35:09;;;;;;;;;;;;;;;-6.09;100.00;99972.13;5002290;28;19922;-83
2023/12/01 02:37:38;;;;;;;;;;;;;;;-6.05;100.00;99967.25;4999945;28;19932;-84
2023/12/01 02:40:15;;;;;;;2.42;1.92;;;;;;;-6.02;100.00;99966.88;5010339;28;19944;-83
2023/12/01 02:42:49;;;;;;;2.30;1.80;;;;;;;-6.18;100.00;99962.66;5003187;28;20057;-83
2023/12/01 02:45:23;;;;;;;4.82;3.00;;;;;;;-6.16;100.00;99969.41;5007290;28;20046;-83
2023/12/01 02:47:51;;;;;;;5.13;3.00;;;;;;;-6.06;100.00;99973.56;5009775;28;20060;-83
2023/12/01 02:50:24;;;;;;;4.22;2.72;;;;;;;-6.04;100.00;99972.38;5010445;28;20057;-83
2023/12/01 02:52:59;;;;;;;4.88;2.60;;;;;;;-5.97;100.00;99977.72;5007108;28;20053;-83
2023/12/01 02:55:33;;;;;;;5.30;3.20;;;;;;;-5.87;100.00;99972.09;5010427;28;20073;-83
2023/12/01 02:58:01;;;;;;;4.40;2.75;;;;;;;-5.82;100.00;99969.69;5009436;28;20053;-83
2023/12/01 03:00:35;;;;;;;3.85;2.72;;;;;;;-5.83;100.00;99966.25;5004430;28;20053;-83
2023/12/01 03:03:08;;;;;;;6.53;3.90;;;;;;;-5.90;100.00;99967.19;5001012;28;20054;-82
2023/12/01 03:05:36;;;;;;;2.78;2.15;;;;;;;-5.98;100.00;99968.13;5019336;28;20513;-83
2023/12/01 03:08:11;;;;;;;4.32;3.05;;;;;;;-6.06;100.00;99965.63;5009277;28;20064;-83
2023/12/01 03:10:44;;;;;;;5.30;2.92;;;;;;;-6.03;100.00;99965.25;5006931;28;20054;-82
2023/12/01 03:13:17;;;;;;;3.88;2.40;;;;;;;-6.13;100.00;99954.97;5006646;28;20054;-83
2023/12/01 03:15:45;;;;;;;5.03;2.70;;;;;;;-6.11;100.00;99952.94;5011843;28;20676;-85
2023/12/01 03:18:20;;;;;;;3.42;2.30;;;;;;;-6.17;100.00;99956.38;5013333;28;20054;-85
2023/12/01 03:20:54;;;;;;;4.25;1.90;;;;;;;-6.15;100.00;99983.47;5027764;28;20062;-85
2023/12/01 03:23:28;;;;;;;7.20;3.53;;;;;;;-6.09;100.00;99989.84;5011135;28;20534;-84
2023/12/01 03:26:01;;;;;;;6.72;2.63;;;;;;;-6.11;100.00;99994.53;5011446;28;20057;-85
2023/12/01 03:28:31;;;;;;;4.63;3.03;;;;;;;-6.05;100.00;99985.81;5012525;28;20061;-85
2023/12/01 03:31:04;;;;;;;3.67;2.47;;;;;;;-6.10;100.00;99994.31;5011853;28;20074;-85
2023/12/01 03:33:37;;;;;;;4.20;2.65;;;;;;;-6.06;100.00;99997.41;5026728;28;20491;-84
2023/12/01 03:36:11;;;;;;;6.47;3.15;;;;;;;-6.04;100.00;99993.56;5011656;28;20065;-84
2023/12/01 03:38:46;;;;;;;5.22;3.38;;;;;;;-5.94;100.00;99992.41;5007856;28;20046;-85
2023/12/01 03:41:19;;;;;;;4.18;2.78;;;;;;;-5.90;100.00;99997.13;5013349;28;20054;-85
2023/12/01 03:43:47;;;;;;;7.43;3.30;;;;;;;-5.87;100.00;99980.03;5012367;28;20513;-85
2023/12/01 03:46:15;;;;;;;6.03;3.03;;;;;;;-5.89;100.00;99976.78;5022220;28;20049;-85
2023/12/01 03:48:49;;;;;;;5.72;3.45;;;;;;;-5.78;100.00;99984.22;5007603;28;20054;-85
2023/12/01 03:51:17;;;;;;;6.47;2.88;;;;;;;-5.76;100.00;99984.03;5011260;28;20054;-82
2023/12/01 03:53:51;;;;;;;4.28;2.45;;;;;;;-5.74;100.00;99988.13;5012794;28;20045;-83
2023/12/01 03:56:24;;;;;;;2.05;1.67;;;;;;;-5.74;100.00;99988.13;5024570;28;20062;-83
2023/12/01 03:58:55;;;;;;;5.82;3.13;;;;;;;-5.70;100.00;99977.97;5007200;28;20054;-83
2023/12/01 04:01:28;;;;;;;5.55;3.38;;;;;;;-5.75;100.00;99980.38;5008838;28;20049;-83
2023/12/01 04:03:56;;;;;;;4.35;2.60;;;;;;;-5.83;100.00;99984.78;5009713;28;20049;-83
2023/12/01 04:06:29;;;;;;;;;;;;;;;-5.70;100.00;99983.28;5012647;28;20046;-83
2023/12/01 04:09:04;;;;;;;;;;;;;;;-5.64;100.00;99980.66;5013084;28;19937;-83
2023/12/01 04:11:38;;;;;;;;;;;;;;;-5.68;100.00;99976.75;5003983;28;19922;-84
2023/12/01 04:14:11;;;;;;;;;;;;;;;-5.67;100.00;99974.94;5010834;28;19921;-83
2023/12/01 04:16:39;;;;;;;;;;;;;;;-5.57;100.00;99974.59;5011663;28;20374;-83
2023/12/01 04:19:12;;;;;;;;;;;;;;;-5.74;100.00;99971.41;5011374;28;19933;-82
2023/12/01 04:21:40;;;;;;;;;;;;;;;-5.63;100.00;99971.69;5011437;28;19928;-82
2023/12/01 04:24:09;;;;;;;;;;;;;;;-5.55;100.00;99973.41;5011992;28;19925;-85
2023/12/01 04:26:42;;;;;;;;;;;;;;;-5.52;100.00;99967.72;5022408;28;19921;-83
2023/12/01 04:29:10;;;;;;;;;;;;;;;-5.48;100.00;99970.81;5011308;28;19922;-83
2023/12/01 04:31:42;;;;;;;;;;;;;;;-5.47;100.00;99975.09;5010225;28;19928;-84
2023/12/01 04:34:10;;;;;;;;;;;;;;;-5.55;100.00;99970.75;5013777;28;19921;-82
2023/12/01 04:36:38;;;;;;;;;;;;;;;-5.66;100.00;99971.28;5012720;28;19922;-82
2023/12/01 04:39:14;;;;;;;;;;;;;;;-5.57;100.00;99971.97;5010844;28;19928;-81
2023/12/01 04:41:42;;;;;;;;;;;;;;;-5.50;100.00;99972.81;5003352;28;20369;-83
2023/12/01 04:44:10;;;;;;;;;;;;;;;-5.55;100.00;99988.47;5010858;28;20385;-83
2023/12/01 04:46:43;;;;;;;;;;;;;;;-5.55;100.00;99980.53;5009865;28;19929;-82
2023/12/01 04:49:16;;;;;;;;;;;;;;;-5.51;100.00;99979.97;5012418;28;19922;-83
2023/12/01 04:51:44;;;;;;;;;;;;;;;-5.42;100.00;99969.22;5012437;28;19928;-82
2023/12/01 04:54:18;;;;;;;;;;;;;;;-5.42;100.00;99975.34;5003118;28;19925;-83
2023/12/01 04:56:51;;;;;;;;;;;;;;;-5.41;100.00;99977.00;5007882;28;19921;-82
2023/12/01 04:59:19;;;;;;;;;;;;;;;-5.39;100.00;99980.25;5003546;28;19925;-82
2023/12/01 05:01:52;;;;;;;;;;;;;;;-5.39;100.00;99982.91;5026752;28;19921;-82
2023/12/01 05:04:25;;;;;;;;;;;;;;;-5.40;100.00;99967.19;5010070;28;19937;-82
2023/12/01 05:06:58;;;;;;;;;;;;;;;-5.36;100.00;99971.09;5005093;28;19928;-83
2023/12/01 05:09:32;;;;;;;;;;;;;;;-5.37;100.00;99977.41;5004873;28;19922;-82
2023/12/01 05:12:00;;;;;;;;;;;;;;;-5.39;100.00;99977.59;5009728;28;19997;-83
2023/12/01 05:14:33;;;;;;;;;;;;;;;-5.30;100.00;99978.28;4999852;28;19940;-83
2023/12/01 05:17:01;;;;;;;;;;;;;;;-5.24;100.00;99977.50;5010725;28;19929;-81
2023/12/01 05:19:28;;;;;;;;;;;;;;;-5.21;100.00;99979.75;5003337;28;19929;-83
2023/12/01 05:22:01;;;;;;;;;;;;;;;-5.17;100.00;99980.22;5025307;28;19928;-82
2023/12/01 05:24:36;;;;;;;;;;;;;;;-5.20;100.00;99980.59;5008740;28;19922;-82
2023/12/01 05:27:09;;;;;;;;;;;;;;;-5.14;100.00;99980.66;5020767;28;19925;-83
2023/12/01 05:29:38;;;;;;;;;;;;;;;-5.18;100.00;99983.88;5009275;28;19922;-82
2023/12/01 05:32:06;;;;;;;;;;;;;;;-5.12;100.00;99991.06;5021582;28;20440;-82
2023/12/01 05:34:34;;;;;;;;;;;;;;;-5.13;100.00;99989.44;5011714;28;19928;-83
2023/12/01 05:37:07;;;;;;;;;;;;;;;-5.14;100.00;99991.25;5023986;28;19929;-84
2023/12/01 05:39:36;;;;;;;;;;;;;;;-5.12;100.00;99988.41;5023565;28;19928;-83
2023/12/01 05:42:05;;;;;;;;;;;;;;;-5.11;100.00;99987.38;5004490;28;19932;-82
2023/12/01 05:44:33;;;;;;;;;;;;;;;-5.12;100.00;99991.88;5002042;28;19921;-82
2023/12/01 05:47:01;;;;;;;;;;;;;;;-5.10;100.00;99997.00;5011282;28;20570;-83
2023/12/01 05:49:29;;;;;;;;;;;;;;;-5.09;100.00;99997.81;5020060;28;20310;-82
2023/12/01 05:52:02;;;;;;;;;;;;;;;-5.13;100.00;99992.06;5006746;28;19925;-82
2023/12/01 05:54:30;;;;;;;;;;;;;;;-5.15;100.00;99988.78;5010692;28;20306;-83
2023/12/01 05:57:06;;;;;;;;;;;;;;;-5.18;100.00;99997.13;5018053;28;19922;-82
2023/12/01 05:59:42;;;;;;;;;;;;;;;-5.07;100.00;99996.59;5007773;28;19921;-81
2023/12/01 06:02:11;;;;;;;;;;;;;;;-5.13;100.00;100002.69;5008288;28;19929;-82
2023/12/01 06:04:38;;;;;;;;;;;;;;;-5.17;100.00;99998.78;5006044;28;19921;-82
2023/12/01 06:07:07;;;;;;;;;;;;;;;-5.15;100.00;100002.88;5007280;28;19925;-82
2023/12/01 06:09:36;;;;;;;;;;;;;;;-4.99;100.00;100000.94;5007238;28;19921;-82
2023/12/01 06:12:05;;;;;;;;;;;;;;;-5.03;100.00;100003.16;5009514;28;20302;-81
2023/12/01 06:14:33;;;;;;;;;;;;;;;-5.05;100.00;99997.22;5026084;28;19921;-82
2023/12/01 06:17:07;;;;;;;;;;;;;;;-5.00;100.00;100007.25;5004677;28;19925;-81
2023/12/01 06:19:35;;;;;;;;;;;;;;;-5.00;100.00;99997.47;5018716;28;19925;-82
2023/12/01 06:22:07;;;;;;;;;;;;;;;-5.00;100.00;99999.28;5010858;28;19925;-82
2023/12/01 06:24:35;;;;;;;;;;;;;;;-4.97;100.00;100005.03;5006992;28;19922;-82
2023/12/01 06:27:04;;;;;;;;;;;;;;;-4.89;100.00;100009.34;5006327;28;19921;-82
2023/12/01 06:29:34;;;;;;;;;;;;;;;-4.95;100.00;100005.66;5010541;28;19922;-82
2023/12/01 06:32:07;;;;;;;;;;;;;;;-4.90;100.00;100010.41;5004811;28;20670;-82
2023/12/01 06:34:41;;;;;;;;;;;;;;;-4.87;100.00;100012.66;5005822;28;19928;-82
2023/12/01 06:37:09;;;;;;;;;;;;;;;-4.83;100.00;100008.59;5020464;28;19922;-82
2023/12/01 06:39:37;;;;;;;;;;;;;;;-4.88;100.00;100013.66;5007879;28;20374;-82
2023/12/01 06:42:05;;;;;;;;;;;;;;;-4.78;100.00;100008.00;5018844;28;20444;-82
2023/12/01 06:44:35;;;;;;;;;;;;;;;-4.87;100.00;100009.19;5011315;28;19921;-82
2023/12/01 06:47:02;;;;;;;;;;;;;;;-4.86;100.00;100016.97;5020019;28;19922;-82
2023/12/01 06:49:35;;;;;;;;;;;;;;;-4.87;100.00;100027.78;5009399;28;19921;-82
2023/12/01 06:52:03;;;;;;;;;;;;;;;-4.84;100.00;100032.69;5022329;28;19921;-82
2023/12/01 06:54:31;;;;;;;;;;;;;;;-4.86;100.00;100032.88;5008889;28;20306;-82
2023/12/01 06:56:59;;;;;;;;;;;;;;;-4.79;100.00;100035.59;5018992;28;19921;-82
2023/12/01 06:59:27;;;;;;;;;;;;;;;-4.77;100.00;100041.50;5000855;28;19957;-81
2023/12/01 07:01:56;;;;;;;;;;;;;;;-4.85;100.00;100039.00;5008305;28;19921;-82
2023/12/01 07:04:32;;;;;;;;;;;;;;;-4.82;100.00;100043.91;5009215;28;19925;-81
2023/12/01 07:07:00;;;;;;;;;;;;;;;-4.80;100.00;100047.22;5017133;28;19929;-81
2023/12/01 07:09:33;;;;;;;;;;;;;;;-4.76;100.00;100047.63;5008475;28;19925;-82
2023/12/01 07:12:07;;;;;;;;;;;;;;;-4.72;100.00;100044.41;5008464;28;19922;-82
2023/12/01 07:14:40;;;;;;;;;;;;;;;-4.75;100.00;100046.63;5010844;28;20551;-84
2023/12/01 07:17:09;;;;;;;;;;;;;;;-4.83;100.00;100048.41;5004354;28;19925;-84
2023/12/01 07:19:37;;;;;;;;;;;;;;;-4.74;100.00;100046.41;5006830;28;19925;-83
2023/12/01 07:22:10;;;;;;;;;;;;;;;-4.69;100.00;100046.66;5010030;28;19925;-83
2023/12/01 07:24:38;;;;;;;;;;;;;;;-4.64;100.00;100062.84;5010193;28;19922;-87
2023/12/01 07:27:09;;;;;;;;;;;;;;;-4.66;100.00;100059.53;5005111;28;20382;-83
2023/12/01 07:29:38;;;;;;;;;;;;;;;-4.61;100.00;100067.75;5012002;28;19921;-84
2023/12/01 07:32:06;;;;;;;;;;;;;;;-4.64;100.00;100067.31;5008510;28;19921;-84
2023/12/01 07:34:36;;;;;;;;;;;;;;;-4.63;100.00;100068.94;5015213;28;19929;-83
2023/12/01 07:37:10;;;;;;;;;;;;;;;-4.62;100.00;100078.56;5006174;28;19929;-84
2023/12/01 07:39:38;;;;;;;;;;;;;;;-4.57;100.00;100077.97;5006973;28;19929;-84
2023/12/01 07:42:07;;;;;;;;;;;;;;;-4.55;100.00;100075.97;5004203;28;19922;-91
2023/12/01 07:44:35;;;;;;;;;;;;;;;-4.53;100.00;100084.53;5003207;28;19921;-86
2023/12/01 07:47:11;;;;;;;;;;;;;;;-4.44;100.00;100086.03;5019775;28;19925;-84
2023/12/01 07:49:46;;;;;;;;;;;;;;;-4.38;100.00;100090.53;5005457;28;19929;-84
2023/12/01 07:52:13;;;;;;;;;;;;;;;-4.36;100.00;100098.34;5002557;28;19922;-82
2023/12/01 07:54:41;;;;;;;;;;;;;;;-4.36;100.00;100101.00;5010351;28;19921;-83
2023/12/01 07:57:09;;;;;;;;;;;;;;;-4.34;100.00;100090.97;4999455;28;20302;-83
2023/12/01 07:59:37;;;;;;;;;;;;;;;-4.34;100.00;100097.09;5006676;28;19921;-82
2023/12/01 08:02:10;;;;;;;;;;;;;;;-4.30;100.00;100095.69;5004799;28;19922;-82
2023/12/01 08:04:38;;;;;;;;;;;;;;;-4.31;100.00;100096.72;5010502;28;19922;-83
2023/12/01 08:07:08;;;;;;;;;;;;;;;-4.35;100.00;100097.31;5014284;28;20401;-83
2023/12/01 08:09:42;;;;;;;;;;;;;;;-4.33;100.00;100098.75;5022354;28;19933;-82
2023/12/01 08:12:18;;;;;;;;;;;;;;;-4.27;100.00;100095.31;5010759;28;19929;-84
2023/12/01 08:14:51;;;;;;;;;;;;;;;-4.25;100.00;100099.59;5006932;28;20298;-83
2023/12/01 08:17:24;;;;;;;;;;;;;;;-4.27;100.00;100108.59;5010251;28;19925;-83
2023/12/01 08:19:52;;;;;;;;;;;;;;;-4.21;100.00;100112.31;5009550;28;20385;-84
2023/12/01 08:22:27;;;;;;;;;;;;;;;-4.08;100.00;100111.53;5011150;28;19932;-83
2023/12/01 08:24:55;;;;;;;;;;;;;;;-4.05;100.00;100110.34;5005492;28;20823;-85
2023/12/01 08:27:33;;;;;;;;;;;;;;;-4.00;100.00;100119.34;4994779;28;19995;-85
2023/12/01 08:30:02;;;;;;;;;;;;;;;-3.95;100.00;100119.59;4997204;28;20412;-87
2023/12/01 08:32:30;;;;;;;;;;;;;;;-4.07;100.00;100125.66;4986691;28;19941;-86
2023/12/01 08:34:58;;;;;;;;;;;;;;;-4.01;100.00;100120.38;4987286;28;20717;-85
2023/12/01 08:37:32;;;;;;;;;;;;;;;-3.93;100.00;100122.03;4987233;28;20567;-86
2023/12/01 08:40:08;;;;;;;;;;;;;;;-3.93;100.00;100132.69;4989129;28;19929;-87
2023/12/01 08:42:36;;;;;;;;;;;;;;;-3.87;100.00;100125.75;4986546;28;19921;-86
2023/12/01 08:45:05;;;;;;;;;;;;;;;-3.89;100.00;100135.75;4991163;28;19929;-87
2023/12/01 08:47:38;;;;;;;;;;;;;;;-3.88;100.00;100142.72;4991520;28;20719;-86
2023/12/01 08:50:07;;;;;;;;;;;;;;;-3.95;100.00;100143.50;5007900;28;19930;-86
2023/12/01 08:52:41;;;;;;;;;;;;;;;-3.93;100.00;100152.09;4991266;28;19957;-86
2023/12/01 08:55:10;;;;;;;;;;;;;;;-4.00;100.00;100153.09;4988644;28;19929;-87
2023/12/01 08:57:38;;;;;;;;;;;;;;;-4.14;100.00;100152.22;4984813;28;19929;-86
2023/12/01 09:00:07;;;;;;;;;;;;;;;-4.23;100.00;100158.69;4987851;28;19952;-87
2023/12/01 09:02:35;;;;;;;;;;;;;;;-4.33;100.00;100151.88;4982802;28;19929;-86
2023/12/01 09:05:09;;;;;;;;;;;;;;;-4.33;100.00;100159.03;4992861;28;20336;-86
2023/12/01 09:07:43;;;;;;;;;;;;;;;-4.44;100.00;100161.19;5000419;28;19929;-86
2023/12/01 09:10:11;;;;;;;;;;;;;;;-4.53;100.00;100161.53;4989737;28;19930;-86
2023/12/01 09:12:45;;;;;;;;;;;;;;;-4.68;100.00;100174.91;5003945;28;19921;-87
2023/12/01 09:15:13;;;;;;;;;;;;;;;-4.59;100.00;100171.09;4985315;28;19929;-85
2023/12/01 09:17:42;;;;;;;;;;;;;;;-4.64;100.00;100169.03;4991593;28;20476;-87
2023/12/01 09:20:10;;;;;;;;;;;;;;;-4.73;100.00;100169.38;4998946;28;20306;-87
2023/12/01 09:22:38;;;;;;;;;;;;;;;-4.78;100.00;100165.47;4986175;28;19930;-86
2023/12/01 09:25:09;;;;;;;;;;;;;;;-4.75;100.00;100172.22;4979247;28;20484;-86
2023/12/01 09:27:37;;;;;;;;;;;;;;;-4.73;100.00;100166.72;4977791;28;19938;-84
2023/12/01 09:30:07;;;;;;;;;;;;;;;-4.74;100.00;100173.03;4972309;28;20416;-85
2023/12/01 09:32:35;;;;;;;;;;;;;;;-4.75;100.00;100174.03;4976248;28;19929;-85
2023/12/01 09:35:03;;;;;;;;;;;;;;;-4.70;100.00;100174.28;4984819;28;19922;-84
2023/12/01 09:37:32;;;;;;;;;;;;;;;-4.55;100.00;100172.38;4973565;28;19980;-85
2023/12/01 09:40:02;;;;;;;;;;;;;;;-4.37;100.00;100173.72;4982672;28;20421;-86
2023/12/01 09:42:38;;;;;;;;;;;;;;;-4.14;100.00;100171.63;4990385;28;20337;-85
2023/12/01 09:45:09;;;;;;;;;;;;;;;-3.90;100.00;100160.72;4986862;28;19929;-85
2023/12/01 09:47:40;;;;;;;;;;;;;;;-3.65;100.00;100176.97;4983207;28;19929;-85
2023/12/01 09:50:14;;;;;;;;;;;;;;;-3.55;100.00;100176.59;4987657;28;19929;-85
2023/12/01 09:52:47;;;;;;;;;;;;;;;-3.38;100.00;100171.72;4984929;28;20302;-85
2023/12/01 09:55:20;;;;;;;;;;;;;;;-3.20;100.00;100169.34;4993206;28;19929;-84
2023/12/01 09:57:51;;;;;;;;;;;;;;;-2.92;100.00;100171.00;5004545;28;20475;-85
2023/12/01 10:00:24;;;;;;;;;;;;;;;-2.92;100.00;100174.47;5004645;28;19948;-84
2023/12/01 10:02:52;;;;;;;;;;;;;;;-3.04;100.00;100169.97;4989040;28;19929;-85
2023/12/01 10:05:20;;;;;;;;;;;;;;;-2.81;100.00;100175.72;4982110;28;19929;-85
2023/12/01 10:07:49;;;;;;;;;;;;;;;-2.63;100.00;100177.78;4990693;28;19940;-84
2023/12/01 10:10:19;;;;;;;;;;;;;;;-2.85;100.00;100177.16;4983184;28;19940;-85
2023/12/01 10:12:56;;;;;;;;;;;;;;;-2.78;100.00;100177.97;5008709;28;19929;-84
2023/12/01 10:15:24;;;;;;;;;;;;;;;-2.81;100.00;100170.41;4984233;28;19937;-87
2023/12/01 10:17:52;;;;;;;;;;;;;;;-2.83;100.00;100168.94;4979494;28;19930;-85
2023/12/01 10:20:26;;;;;;;;;;;;;;;-2.97;100.00;100158.31;4982642;28;19929;-83
2023/12/01 10:22:55;;;;;;;;;;;;;;;-3.10;100.00;100167.09;4977270;28;19935;-84
2023/12/01 10:25:27;;;;;;;;;;;;;;;-3.11;100.00;100164.63;4986215;28;20592;-84
2023/12/01 10:27:57;;;;;;;;;;;;;;;-3.28;100.00;100177.50;4983198;28;19929;-84
2023/12/01 10:30:25;;;;;;;;;;;;;;;-3.32;100.00;100177.06;4974838;28;20432;-83
2023/12/01 10:32:53;;;;;;;;;;;;;;;-3.40;100.00;100169.28;5000970;28;19929;-84
2023/12/01 10:35:26;;;;;;;;;;;;;;;-3.50;100.00;100168.84;4985131;28;19929;-84
2023/12/01 10:37:54;;;;;;;;;;;;;;;-3.50;100.00;100166.19;4989949;28;20782;-84
2023/12/01 10:40:22;;;;;;;;;;;;;;;-3.47;100.00;100165.78;4988983;28;20301;-83
2023/12/01 10:42:51;;;;;;;;;;;;;;;-3.50;100.00;100166.19;4985860;28;19937;-84
2023/12/01 10:45:20;;;;;;;;;;;;;;;-3.49;100.00;100165.97;4987890;28;19933;-84
2023/12/01 10:47:55;;;;;;;;;;;;;;;-3.55;100.00;100165.94;4985544;28;19936;-84
2023/12/01 10:50:23;;;;;;;;;;;;;;;-3.59;100.00;100166.34;4988774;28;19925;-84
2023/12/01 10:52:53;;;;;;;;;;;;;;;-3.59;100.00;100162.84;4985258;28;19937;-85
2023/12/01 10:55:22;;;;;;;;;;;;;;;-3.67;100.00;100161.22;4983206;28;20117;-84
2023/12/01 10:57:50;;;;;;;;;;;;;;;-3.76;100.00;100155.25;4980910;28;19930;-84
2023/12/01 11:00:30;;;;;;;;;;;;;;;-3.72;100.00;100165.50;4983367;28;19930;-84
2023/12/01 11:03:00;;;;;;;;;;;;;;;-3.71;100.00;100157.31;4997203;28;19929;-84
2023/12/01 11:05:30;;;;;;;;;;;;;;;-3.73;100.00;100158.53;4985144;28;19936;-84
2023/12/01 11:08:09;;;;;;;;;;;;;;;-3.82;100.00;100160.53;4971886;28;19940;-85
2023/12/01 11:10:42;;;;;;;;;;;;;;;-3.80;100.00;100151.34;4981042;28;20278;-84
2023/12/01 11:13:18;;;;;;;;;;;;;;;-3.79;100.00;100160.13;4991359;28;19926;-84
2023/12/01 11:15:54;;;;;;;;;;;;;;;-3.80;100.00;100163.81;4984997;28;19929;-84
2023/12/01 11:18:22;;;;;;;;;;;;;;;-3.78;100.00;100164.44;4987697;28;19933;-83
2023/12/01 11:20:52;;;;;;;;;;;;;;;-3.82;100.00;100156.03;4980662;28;19928;-84
2023/12/01 11:23:24;;;;;;;;;;;;;;;-3.80;100.00;100159.34;4985115;28;20378;-84
2023/12/01 11:25:55;;;;;;;;;;;;;;;-3.78;100.00;100156.47;4983570;28;19936;-84
2023/12/01 11:28:42;;;;;;;;;;;;;;;-3.78;100.00;100157.28;4993457;28;19929;-83
2023/12/01 11:31:19;;;;;;;;;;;;;;;-3.77;100.00;100158.94;4997950;28;20405;-84
2023/12/01 11:33:48;;;;;;;;;;;;;;;-3.77;100.00;100158.09;4996234;28;19929;-84
2023/12/01 11:36:26;;;;;;;;;;;;;;;-3.71;100.00;100162.63;4991835;28;19940;-84
2023/12/01 11:39:16;;;;;;;;;;;;;;;-3.68;100.00;100164.06;5000335;28;19936;-84
2023/12/01 11:41:44;;;;;;;;;;;;;;;-3.71;100.00;100161.81;4998171;28;20504;-84
2023/12/01 11:44:19;;;;;;;;;;;;;;;-3.70;100.00;100160.78;4999999;28;21648;-84
2023/12/01 11:46:55;;;;;;;;;;;;;;;-3.68;100.00;100161.41;4997084;28;19929;-84
2023/12/01 11:49:30;;;;;;;;;;;;;;;-3.60;100.00;100166.56;4994694;28;19957;-84
2023/12/01 11:52:04;;;;;;;;;;;;;;;-3.61;100.00;100168.38;4999466;28;20358;-84
2023/12/01 11:54:33;;;;;;;;;;;;;;;-3.59;100.00;100162.84;5002103;28;20381;-83
2023/12/01 11:57:02;;;;;;;;;;;;;;;-3.60;100.00;100162.06;4999539;28;19929;-83
2023/12/01 11:59:30;;;;;;;;;;;;;;;-3.57;100.00;100160.84;5000547;28;20504;-84
2023/12/01 12:02:05;;;;;;;;;;;;;;;-3.56;100.00;100162.47;5003641;28;19936;-83
2023/12/01 12:04:38;;;;;;;;;;;;;;;-3.53;100.00;100159.41;4999741;28;20205;-84
2023/12/01 12:07:08;;;;;;;;;;;;;;;-3.50;100.00;100167.00;5004252;28;19929;-83
2023/12/01 12:09:43;;;;;;;;;;;;;;;-3.50;100.00;100160.88;5005601;28;21354;-83
2023/12/01 12:12:13;;;;;;;;;;;;;;;-3.51;100.00;100159.22;5005806;28;19929;-83
2023/12/01 12:14:47;;;;;;;;;;;;;;;-3.50;100.00;100151.03;5004745;28;19929;-84
2023/12/01 12:17:17;;;;;;;;;;;;;;;-3.51;100.00;100146.72;5006002;28;19929;-83
2023/12/01 12:19:51;;;;;;;;;;;;;;;-3.45;100.00;100153.91;5006232;28;19925;-83
2023/12/01 12:22:20;;;;;;;;;;;;;;;-3.39;100.00;100146.16;5006977;28;19936;-84
2023/12/01 12:24:48;;;;;;;;;;;;;;;-3.30;100.00;100151.09;5004169;28;19944;-84
2023/12/01 12:27:21;;;;;;;;;;;;;;;-3.27;100.00;100145.34;4978777;28;19929;-83